Main page
METAR-TAF:

METAR-TAF

Airports :

Waupaca Municipal Airport

Waupaca, Wisconsin, United States

latitude: 44-20-01N, longitude: 089-00-55W, elevation: 827 ft

Current weather observation

The report was made 17 minutes ago, at 13:55 UTC
Wind 6 mph from the West/Northwest
Temperature 36°F
Humidity 69%
Pressure 29.71 in. Hg
Visibility: 10 miles
Clear sky

METAR: KPCZ 231355Z AUTO 30005KT 10SM CLR 02/M03 A2971 RMK AO2 T00211026

Time: 08:12 (14:12 UTC)


TAF: missing

Weather observations and forecasts of more than 4000 airports (METAR and TAF reports).

The available stations are represented by yellow and red dots on the map.

Hover mouse over dot to see the name of the station.

Then click to see weather observations and forecasts.

To change the map : click on the green buttons with a black cross to zoom in, on the green button with a dash to zoom out, or on the green arrows for adjacent maps.


METAR-TAF: